createdAt,value
2022-12-10T00:01:10.385Z,33.28
2022-12-10T00:03:37.013Z,38.50
2022-12-10T00:06:04.268Z,36.25
2022-12-10T00:08:30.941Z,40.83
2022-12-10T00:10:57.183Z,36.78
2022-12-10T00:13:23.474Z,37.15
2022-12-10T00:15:49.797Z,37.05
2022-12-10T00:18:16.112Z,36.85
2022-12-10T00:20:42.363Z,39.80
2022-12-10T00:23:08.575Z,44.15
2022-12-10T00:25:34.812Z,37.75
2022-12-10T00:28:01.041Z,39.35
2022-12-10T00:30:27.356Z,36.28
2022-12-10T00:32:53.573Z,36.50
2022-12-10T00:35:19.809Z,36.17
2022-12-10T00:37:46.084Z,39.15
2022-12-10T00:40:12.574Z,37.55
2022-12-10T00:42:38.798Z,34.25
2022-12-10T00:45:05.458Z,37.35
2022-12-10T00:47:31.766Z,35.97
2022-12-10T00:49:58.029Z,35.50
2022-12-10T00:52:24.268Z,37.55
2022-12-10T00:54:50.471Z,43.78
2022-12-10T00:57:16.777Z,36.50
2022-12-10T00:59:42.998Z,38.85
2022-12-10T01:02:09.344Z,36.72
2022-12-10T01:04:35.753Z,37.22
2022-12-10T01:07:05.555Z,40.17
2022-12-10T01:09:34.393Z,37.03
2022-12-10T01:12:02.585Z,36.70
2022-12-10T01:14:30.753Z,37.08
2022-12-10T01:16:58.180Z,37.70
2022-12-10T01:19:24.494Z,37.78
2022-12-10T01:21:51.852Z,35.50
2022-12-10T01:24:18.061Z,34.40
2022-12-10T01:26:44.315Z,41.60
2022-12-10T01:29:11.733Z,37.72
2022-12-10T01:31:38.809Z,43.67
2022-12-10T01:34:06.532Z,42.50
2022-12-10T01:36:33.991Z,40.20
2022-12-10T01:39:00.380Z,40.58
2022-12-10T01:41:28.543Z,41.83
2022-12-10T01:43:57.714Z,39.58
2022-12-10T01:46:28.771Z,39.80
2022-12-10T01:48:55.311Z,40.08
2022-12-10T01:51:22.647Z,38.42
2022-12-10T01:53:48.992Z,41.00
2022-12-10T01:56:17.273Z,41.35
2022-12-10T01:58:44.444Z,41.28
2022-12-10T02:01:23.732Z,44.92
2022-12-10T02:04:09.626Z,39.55
2022-12-10T02:06:47.315Z,40.40
2022-12-10T02:09:13.568Z,43.75
2022-12-10T02:11:45.357Z,41.47
2022-12-10T02:14:16.088Z,39.40
2022-12-10T02:16:44.837Z,43.63
2022-12-10T02:19:18.952Z,38.58
2022-12-10T02:21:46.538Z,37.10
2022-12-10T02:24:15.407Z,46.13
2022-12-10T02:26:46.728Z,43.53
2022-12-10T02:29:13.197Z,44.70
2022-12-10T02:31:41.275Z,40.88
2022-12-10T02:34:08.969Z,45.13
2022-12-10T02:36:37.098Z,44.78
2022-12-10T02:39:04.917Z,42.22
2022-12-10T02:41:46.256Z,38.25
2022-12-10T02:44:49.583Z,44.25
2022-12-10T02:47:17.476Z,45.72
2022-12-10T02:49:45.641Z,46.25
2022-12-10T02:52:15.649Z,40.45
2022-12-10T02:54:46.297Z,42.40
2022-12-10T02:57:16.108Z,44.08
2022-12-10T03:00:01.018Z,41.08
2022-12-10T03:02:34.190Z,44.17
2022-12-10T03:05:12.942Z,44.25
2022-12-10T03:07:52.619Z,47.10
2022-12-10T03:10:24.543Z,46.05
2022-12-10T03:12:55.456Z,43.55
2022-12-10T03:15:22.559Z,48.67
2022-12-10T03:17:49.482Z,40.30
2022-12-10T03:20:16.631Z,45.42
2022-12-10T03:22:44.561Z,47.25
2022-12-10T03:25:12.947Z,46.97
2022-12-10T03:27:40.322Z,44.38
2022-12-10T03:30:07.273Z,49.38
2022-12-10T03:32:33.782Z,43.38
2022-12-10T03:35:00.813Z,46.38
2022-12-10T03:37:27.818Z,44.22
2022-12-10T03:39:54.247Z,52.25
2022-12-10T03:42:20.487Z,48.97
2022-12-10T03:44:50.051Z,49.53
2022-12-10T03:47:16.462Z,47.72
2022-12-10T03:49:43.443Z,45.25
2022-12-10T03:52:09.795Z,46.05
2022-12-10T03:54:36.048Z,44.38
2022-12-10T03:57:02.289Z,46.08
2022-12-10T03:59:28.517Z,47.55
2022-12-10T04:01:54.813Z,45.38
2022-12-10T04:04:21.190Z,47.05
2022-12-10T04:06:47.404Z,44.10
2022-12-10T04:09:14.576Z,46.85
2022-12-10T04:11:40.781Z,48.15
2022-12-10T04:14:27.348Z,49.85
2022-12-10T04:16:53.592Z,47.08
2022-12-10T04:19:19.863Z,50.42
2022-12-10T04:22:09.658Z,45.45
2022-12-10T04:24:55.025Z,46.92
2022-12-10T04:27:26.506Z,48.75
2022-12-10T04:29:53.375Z,47.40
2022-12-10T04:34:45.989Z,53.63
2022-12-10T04:37:12.614Z,52.58
2022-12-10T04:39:38.934Z,46.38
2022-12-10T04:42:05.498Z,45.95
2022-12-10T04:44:31.713Z,68.93
2022-12-10T04:46:57.966Z,59.92
2022-12-10T04:49:24.321Z,52.83
2022-12-10T04:51:50.885Z,46.33
2022-12-10T04:54:17.309Z,51.08
2022-12-10T04:56:43.564Z,44.88
2022-12-10T04:59:10.294Z,45.20
2022-12-10T05:01:36.781Z,45.83
2022-12-10T05:04:06.024Z,41.80
2022-12-10T05:06:32.660Z,41.75
2022-12-10T05:08:58.926Z,45.28
2022-12-10T05:11:26.275Z,42.30
2022-12-10T05:13:56.043Z,48.38
2022-12-10T05:16:23.304Z,40.45
2022-12-10T05:18:50.279Z,45.13
2022-12-10T05:21:17.583Z,47.30
2022-12-10T05:23:45.046Z,49.10
2022-12-10T05:26:13.635Z,42.92
2022-12-10T05:28:44.626Z,45.03
2022-12-10T05:31:14.710Z,44.83
2022-12-10T05:33:41.249Z,43.38
2022-12-10T05:36:07.802Z,41.67
2022-12-10T05:38:34.923Z,41.53
2022-12-10T05:41:02.182Z,45.97
2022-12-10T05:43:28.386Z,41.95
2022-12-10T05:45:54.663Z,46.97
2022-12-10T05:48:20.925Z,46.30
2022-12-10T05:50:47.155Z,42.35
2022-12-10T05:53:14.770Z,38.97
2022-12-10T05:55:40.997Z,41.95
2022-12-10T05:58:07.204Z,41.90
2022-12-10T06:00:33.454Z,40.67
2022-12-10T06:02:59.726Z,41.63
2022-12-10T06:05:26.086Z,41.60
2022-12-10T06:07:52.532Z,43.22
2022-12-10T06:10:18.837Z,42.80
2022-12-10T06:12:45.163Z,41.53
2022-12-10T06:15:11.596Z,41.70
2022-12-10T06:17:37.884Z,38.70
2022-12-10T06:20:04.311Z,39.17
2022-12-10T06:22:30.552Z,38.65
2022-12-10T06:24:56.808Z,39.45
2022-12-10T06:27:23.091Z,38.22
2022-12-10T06:29:49.314Z,41.50
2022-12-10T06:32:15.555Z,36.92
2022-12-10T06:34:43.145Z,38.40
2022-12-10T06:37:09.478Z,39.05
2022-12-10T06:39:35.779Z,41.35
2022-12-10T06:42:02.020Z,40.90
2022-12-10T06:44:28.579Z,37.45
2022-12-10T06:46:54.885Z,42.97
2022-12-10T06:49:21.191Z,38.08
2022-12-10T06:51:48.070Z,42.10
2022-12-10T06:56:40.419Z,41.13
2022-12-10T06:59:09.455Z,41.63
2022-12-10T07:01:35.834Z,38.83
2022-12-10T07:04:02.256Z,35.05
2022-12-10T07:06:29.544Z,38.20
2022-12-10T07:08:55.750Z,39.35
2022-12-10T07:11:23.289Z,38.03
2022-12-10T07:13:49.527Z,35.13
2022-12-10T07:16:16.941Z,43.03
2022-12-10T07:18:47.417Z,37.72
2022-12-10T07:21:16.661Z,38.67
2022-12-10T07:23:43.038Z,37.10
2022-12-10T07:26:09.247Z,37.92
2022-12-10T07:28:39.230Z,33.97
2022-12-10T07:31:10.397Z,37.30
2022-12-10T07:33:36.929Z,38.47
2022-12-10T07:36:06.791Z,35.47
2022-12-10T07:38:33.077Z,32.85
2022-12-10T07:41:02.751Z,34.42
2022-12-10T07:43:28.998Z,34.15
2022-12-10T07:45:55.260Z,40.85
2022-12-10T07:48:21.549Z,40.05
2022-12-10T07:50:47.790Z,48.00
2022-12-10T07:53:14.235Z,35.38
2022-12-10T07:55:40.502Z,35.15
2022-12-10T07:58:06.754Z,33.35
2022-12-10T08:00:33.004Z,34.25
2022-12-10T08:02:59.358Z,40.90
2022-12-10T08:05:25.605Z,34.65
2022-12-10T08:07:56.864Z,32.53
2022-12-10T08:10:26.703Z,37.85
2022-12-10T08:12:52.915Z,32.30
2022-12-10T08:15:19.140Z,32.03
2022-12-10T08:17:45.435Z,33.25
2022-12-10T08:20:11.717Z,33.20
2022-12-10T08:22:38.304Z,30.90
2022-12-10T08:25:04.676Z,32.28
2022-12-10T08:27:30.896Z,30.42
2022-12-10T08:29:57.150Z,28.80
2022-12-10T08:32:23.538Z,31.70
2022-12-10T08:34:49.841Z,29.77
2022-12-10T08:37:16.392Z,28.52
2022-12-10T08:39:42.641Z,30.63
2022-12-10T08:42:08.941Z,35.80
2022-12-10T08:44:35.164Z,30.73
2022-12-10T08:47:01.407Z,28.73
2022-12-10T08:49:27.643Z,28.73
2022-12-10T08:51:53.900Z,34.13
2022-12-10T08:54:20.195Z,32.15
2022-12-10T08:56:46.601Z,25.23
2022-12-10T08:59:12.835Z,27.48
2022-12-10T09:01:39.059Z,36.25
2022-12-10T09:04:05.471Z,25.58
2022-12-10T09:06:31.810Z,27.55
2022-12-10T09:08:58.070Z,29.92
2022-12-10T09:11:26.097Z,27.42
2022-12-10T09:13:52.758Z,26.85
2022-12-10T09:16:19.092Z,32.45
2022-12-10T09:18:45.593Z,40.10
2022-12-10T09:21:16.070Z,33.67
2022-12-10T09:23:42.708Z,33.40
2022-12-10T09:26:13.778Z,40.95
2022-12-10T09:28:40.365Z,30.63
2022-12-10T09:31:14.259Z,24.95
2022-12-10T09:33:44.189Z,36.22
2022-12-10T09:36:11.566Z,45.10
2022-12-10T09:38:39.678Z,43.50
2022-12-10T09:41:14.268Z,31.08
2022-12-10T09:43:53.101Z,30.33
2022-12-10T09:46:22.276Z,30.45
2022-12-10T09:49:06.860Z,30.95
2022-12-10T09:51:35.053Z,42.58
2022-12-10T09:54:02.673Z,38.85
2022-12-10T09:56:32.800Z,48.53
2022-12-10T09:59:00.349Z,31.13
2022-12-10T10:01:28.619Z,39.40
2022-12-10T10:03:54.862Z,44.38
2022-12-10T10:06:22.319Z,39.83
2022-12-10T10:08:49.839Z,36.03
2022-12-10T10:11:20.665Z,30.77
2022-12-10T10:13:49.735Z,36.53
2022-12-10T10:16:34.723Z,29.83
2022-12-10T10:19:12.948Z,38.05
2022-12-10T10:21:40.415Z,35.92
2022-12-10T10:24:11.759Z,35.25
2022-12-10T10:26:38.550Z,35.45
2022-12-10T10:29:06.373Z,41.17
2022-12-10T10:31:33.762Z,33.00
2022-12-10T10:34:01.660Z,29.45
2022-12-10T10:36:29.702Z,34.97
2022-12-10T10:38:56.019Z,32.53
2022-12-10T10:41:24.233Z,35.58
2022-12-10T10:43:53.898Z,30.55
2022-12-10T10:46:24.465Z,34.17
2022-12-10T10:48:51.221Z,29.60
2022-12-10T10:51:23.904Z,31.67
2022-12-10T10:53:52.945Z,33.65
2022-12-10T10:56:22.591Z,33.78
2022-12-10T10:59:07.697Z,42.00
2022-12-10T11:01:53.486Z,26.83
2022-12-10T11:04:25.170Z,25.23
2022-12-10T11:06:54.880Z,27.40
2022-12-10T11:09:23.007Z,24.65
2022-12-10T11:11:53.698Z,28.73
2022-12-10T11:14:27.282Z,24.15
2022-12-10T11:17:13.063Z,22.30
2022-12-10T11:19:57.623Z,21.85
2022-12-10T11:22:31.198Z,24.83
2022-12-10T11:24:58.317Z,25.15
2022-12-10T11:27:30.343Z,26.52
2022-12-10T11:29:59.657Z,29.10
2022-12-10T11:32:29.867Z,23.17
2022-12-10T11:35:08.547Z,18.20
2022-12-10T11:37:36.762Z,21.73
2022-12-10T11:40:10.951Z,25.05
2022-12-10T11:42:56.007Z,24.65
2022-12-10T11:45:27.270Z,33.33
2022-12-10T11:47:56.551Z,31.10
2022-12-10T11:50:29.442Z,31.20
2022-12-10T11:53:14.545Z,23.40
2022-12-10T11:55:43.833Z,20.50
2022-12-10T11:58:13.102Z,21.40
2022-12-10T12:01:04.565Z,22.88
2022-12-10T12:03:32.628Z,18.17
2022-12-10T12:06:08.355Z,25.63
2022-12-10T12:08:34.994Z,24.83
2022-12-10T12:11:09.785Z,22.55
2022-12-10T12:13:58.379Z,25.35
2022-12-10T12:16:31.223Z,27.77
2022-12-10T12:19:12.559Z,21.95
2022-12-10T12:21:39.326Z,20.83
2022-12-10T12:24:09.768Z,25.83
2022-12-10T12:26:37.775Z,24.25
2022-12-10T12:29:06.818Z,23.50
2022-12-10T12:31:36.244Z,21.30
2022-12-10T12:34:05.427Z,23.30
2022-12-10T12:36:35.099Z,33.83
2022-12-10T12:39:25.739Z,30.92
2022-12-10T12:42:06.090Z,30.73
2022-12-10T12:44:50.984Z,23.92
2022-12-10T12:47:20.588Z,18.58
2022-12-10T12:49:49.130Z,25.15
2022-12-10T12:52:27.821Z,20.45
2022-12-10T12:54:57.755Z,25.35
2022-12-10T12:57:46.229Z,29.42
2022-12-10T13:00:19.210Z,23.92
2022-12-10T13:02:49.687Z,20.75
2022-12-10T13:05:24.860Z,18.77
2022-12-10T13:08:09.686Z,21.10
2022-12-10T13:10:44.959Z,23.33
2022-12-10T13:13:22.530Z,19.63
2022-12-10T13:15:48.803Z,24.40
2022-12-10T13:18:19.341Z,18.67
2022-12-10T13:20:50.313Z,17.30
2022-12-10T13:23:25.682Z,18.67
2022-12-10T13:25:55.900Z,23.40
2022-12-10T13:28:31.352Z,29.65
2022-12-10T13:31:06.959Z,21.58
2022-12-10T13:33:50.694Z,19.88
2022-12-10T13:36:20.871Z,19.38
2022-12-10T13:39:05.517Z,21.38
2022-12-10T13:41:55.399Z,18.33
2022-12-10T13:44:31.413Z,16.70
2022-12-10T13:46:57.672Z,17.70
2022-12-10T13:49:25.495Z,17.30
2022-12-10T13:52:08.303Z,16.13
2022-12-10T13:54:34.498Z,16.80
2022-12-10T13:57:19.579Z,21.98
2022-12-10T13:59:50.639Z,22.23
2022-12-10T14:02:35.503Z,23.77
2022-12-10T14:05:20.782Z,22.17
2022-12-10T14:07:49.618Z,34.13
2022-12-10T14:10:18.081Z,21.77
2022-12-10T14:12:44.871Z,17.27
2022-12-10T14:15:23.622Z,19.30
2022-12-10T14:18:09.148Z,24.27
2022-12-10T14:20:36.126Z,28.30
2022-12-10T14:23:25.073Z,18.80
2022-12-10T14:25:52.342Z,21.25
2022-12-10T14:28:18.694Z,30.92
2022-12-10T14:30:46.907Z,24.80
2022-12-10T14:33:15.412Z,24.30
2022-12-10T14:35:41.763Z,23.48
2022-12-10T14:38:18.136Z,42.97
2022-12-10T14:40:44.615Z,78.35
2022-12-10T14:43:21.325Z,71.43
2022-12-10T14:45:51.798Z,41.22
2022-12-10T14:48:18.250Z,33.40
2022-12-10T14:50:45.131Z,29.60
2022-12-10T14:55:38.143Z,29.77
2022-12-10T15:00:30.947Z,26.20
2022-12-10T15:02:59.189Z,22.83
2022-12-10T15:05:29.918Z,28.67
2022-12-10T15:08:14.318Z,27.42
2022-12-10T15:10:42.018Z,32.20
2022-12-10T15:13:15.455Z,26.67
2022-12-10T15:15:41.713Z,34.10
2022-12-10T15:18:07.930Z,27.60
2022-12-10T15:20:51.951Z,23.08
2022-12-10T15:23:26.412Z,28.20
2022-12-10T15:25:58.514Z,26.45
2022-12-10T15:28:26.886Z,28.88
2022-12-10T15:30:56.647Z,24.08
2022-12-10T15:33:27.727Z,28.65
2022-12-10T15:35:54.936Z,27.23
2022-12-10T15:38:21.281Z,26.55
2022-12-10T15:40:47.640Z,24.75
2022-12-10T15:43:16.762Z,29.67
2022-12-10T15:45:43.561Z,31.67
2022-12-10T15:50:39.586Z,27.48
2022-12-10T15:53:05.843Z,27.92
2022-12-10T15:55:32.042Z,27.90
2022-12-10T15:57:58.255Z,29.20
2022-12-10T16:00:25.980Z,27.40
2022-12-10T16:02:58.049Z,23.33
2022-12-10T16:05:29.492Z,26.52
2022-12-10T16:07:56.960Z,24.42
2022-12-10T16:10:24.911Z,25.02
2022-12-10T16:12:57.718Z,28.13
2022-12-10T16:15:28.220Z,30.63
2022-12-10T16:17:54.486Z,27.00
2022-12-10T16:20:26.779Z,29.42
2022-12-10T16:22:57.192Z,26.83
2022-12-10T16:25:24.288Z,23.65
2022-12-10T16:27:50.752Z,29.35
2022-12-10T16:30:17.213Z,33.67
2022-12-10T16:32:43.752Z,35.22
2022-12-10T16:35:10.087Z,52.63
2022-12-10T16:37:36.671Z,38.30
2022-12-10T16:40:03.624Z,30.95
2022-12-10T16:44:56.292Z,39.65
2022-12-10T16:47:22.514Z,50.47
2022-12-10T16:49:48.724Z,39.42
2022-12-10T16:52:15.564Z,34.60
2022-12-10T16:57:14.813Z,53.28
2022-12-10T16:59:41.875Z,32.90
2022-12-10T17:02:21.430Z,31.38
2022-12-10T17:04:48.018Z,36.88
2022-12-10T17:07:14.911Z,31.02
2022-12-10T17:12:07.860Z,30.95
2022-12-10T17:17:01.161Z,26.50
2022-12-10T17:19:28.428Z,27.75
2022-12-10T17:21:54.905Z,29.88
2022-12-10T17:24:21.138Z,35.80
2022-12-10T17:26:48.198Z,31.20
2022-12-10T17:29:19.486Z,30.95
2022-12-10T17:31:45.762Z,30.75
2022-12-10T17:34:12.924Z,27.73
2022-12-10T17:36:39.932Z,28.42
2022-12-10T17:39:06.598Z,25.38
2022-12-10T17:41:32.960Z,23.73
2022-12-10T17:43:59.239Z,34.17
2022-12-10T17:46:26.107Z,27.30
2022-12-10T17:51:18.623Z,22.70
2022-12-10T17:53:44.842Z,28.38
2022-12-10T17:56:13.468Z,27.92
2022-12-10T17:58:40.567Z,27.70
2022-12-10T18:01:07.267Z,27.85
2022-12-10T18:03:33.540Z,29.42
2022-12-10T18:05:59.759Z,28.60
2022-12-10T18:08:26.069Z,33.83
2022-12-10T18:10:53.807Z,141.50
2022-12-10T18:13:21.277Z,363.15
2022-12-10T18:15:47.534Z,272.60
2022-12-10T18:18:13.840Z,57.28
2022-12-10T18:20:40.778Z,49.10
2022-12-10T18:23:08.569Z,43.00
2022-12-10T18:25:35.416Z,41.50
2022-12-10T18:30:28.445Z,39.65
2022-12-10T18:32:55.254Z,36.83
2022-12-10T18:37:49.176Z,288.50
2022-12-10T18:40:17.990Z,140.98
2022-12-10T18:42:47.353Z,99.38
2022-12-10T18:45:14.320Z,133.32
2022-12-10T18:47:40.682Z,105.57
2022-12-10T18:50:12.646Z,38.55
2022-12-10T18:52:39.050Z,39.20
2022-12-10T18:55:05.538Z,166.55
2022-12-10T18:57:35.427Z,28.63
2022-12-10T19:00:05.262Z,45.00
2022-12-10T19:02:31.524Z,70.55
2022-12-10T19:04:57.797Z,86.05
2022-12-10T19:07:24.050Z,77.45
2022-12-10T19:09:52.525Z,88.25
2022-12-10T19:12:18.721Z,43.08
2022-12-10T19:14:44.942Z,44.95
2022-12-10T19:17:11.412Z,39.15
2022-12-10T19:19:37.820Z,37.50
2022-12-10T19:22:04.068Z,43.42
2022-12-10T19:24:30.312Z,52.45
2022-12-10T19:26:56.546Z,41.47
2022-12-10T19:29:23.184Z,37.38
2022-12-10T19:31:50.836Z,37.63
2022-12-10T19:34:17.861Z,48.72
2022-12-10T19:36:44.393Z,52.30
2022-12-10T19:39:17.282Z,47.55
2022-12-10T19:41:46.640Z,40.20
2022-12-10T19:44:12.951Z,44.55
2022-12-10T19:46:39.210Z,33.35
2022-12-10T19:49:05.506Z,36.10
2022-12-10T19:51:31.722Z,30.17
2022-12-10T19:53:58.068Z,33.53
2022-12-10T19:56:25.978Z,39.33
2022-12-10T19:58:53.226Z,48.35
2022-12-10T20:01:19.757Z,44.13
2022-12-10T20:03:46.113Z,46.63
2022-12-10T20:06:14.005Z,51.22
2022-12-10T20:08:40.443Z,48.95
2022-12-10T20:11:06.692Z,44.58
2022-12-10T20:13:32.909Z,43.75
2022-12-10T20:15:59.184Z,43.40
2022-12-10T20:18:25.484Z,42.63
2022-12-10T20:20:51.695Z,53.10
2022-12-10T20:23:17.886Z,59.95
2022-12-10T20:25:45.172Z,69.72
2022-12-10T20:28:15.803Z,92.88
2022-12-10T20:30:42.504Z,77.97
2022-12-10T20:35:54.882Z,68.88
2022-12-10T20:38:21.147Z,74.63
2022-12-10T20:40:47.338Z,68.82
2022-12-10T20:43:13.544Z,64.32
2022-12-10T20:45:39.742Z,60.58
2022-12-10T20:48:06.016Z,73.97
2022-12-10T20:50:32.213Z,96.90
2022-12-10T20:52:58.451Z,66.65
2022-12-10T20:55:24.654Z,61.67
2022-12-10T20:57:50.879Z,56.55
2022-12-10T21:00:18.517Z,49.42
2022-12-10T21:02:44.903Z,104.03
2022-12-10T21:05:12.488Z,71.25
2022-12-10T21:07:39.058Z,72.72
2022-12-10T21:10:05.547Z,74.80
2022-12-10T21:12:31.802Z,71.72
2022-12-10T21:15:03.952Z,60.75
2022-12-10T21:17:32.784Z,51.58
2022-12-10T21:19:58.989Z,47.03
2022-12-10T21:22:25.251Z,49.70
2022-12-10T21:24:51.530Z,48.65
2022-12-10T21:27:18.038Z,59.00
2022-12-10T21:29:44.258Z,53.08
2022-12-10T21:32:10.523Z,56.42
2022-12-10T21:34:36.728Z,59.38
2022-12-10T21:37:02.935Z,50.95
2022-12-10T21:39:29.144Z,37.67
2022-12-10T21:42:13.783Z,53.40
2022-12-10T21:44:40.037Z,72.85
2022-12-10T21:47:06.779Z,82.63
2022-12-10T21:51:59.175Z,67.45
2022-12-10T21:54:25.410Z,70.28
2022-12-10T21:56:51.647Z,68.38
2022-12-10T21:59:17.900Z,46.22
2022-12-10T22:01:44.200Z,67.45
2022-12-10T22:04:15.728Z,54.83
2022-12-10T22:06:43.596Z,54.83
2022-12-10T22:09:13.677Z,47.65
2022-12-10T22:11:39.902Z,36.58
2022-12-10T22:14:06.163Z,38.63
2022-12-10T22:16:32.406Z,41.75
2022-12-10T22:18:58.742Z,42.35
2022-12-10T22:21:25.295Z,43.25
2022-12-10T22:23:52.215Z,48.05
2022-12-10T22:26:18.659Z,51.75
2022-12-10T22:28:44.938Z,49.00
2022-12-10T22:31:11.528Z,32.85
2022-12-10T22:33:38.412Z,53.92
2022-12-10T22:38:30.837Z,45.85
2022-12-10T22:40:57.269Z,44.70
2022-12-10T22:46:09.829Z,42.08
2022-12-10T22:48:37.245Z,38.58
2022-12-10T22:51:04.860Z,41.83
2022-12-10T22:53:31.107Z,34.60
2022-12-10T22:56:01.239Z,36.97
2022-12-10T22:58:27.899Z,39.17
2022-12-10T23:03:20.551Z,45.83
2022-12-10T23:05:47.558Z,41.80
2022-12-10T23:08:13.858Z,37.15
2022-12-10T23:10:40.693Z,35.55
2022-12-10T23:13:07.095Z,33.80
2022-12-10T23:15:33.989Z,34.80
2022-12-10T23:18:00.244Z,39.25
2022-12-10T23:20:26.616Z,41.08
2022-12-10T23:22:53.878Z,50.70
2022-12-10T23:25:20.198Z,41.20
2022-12-10T23:27:46.431Z,38.60
2022-12-10T23:30:13.324Z,45.08
2022-12-10T23:32:39.732Z,46.28
2022-12-10T23:35:06.158Z,46.60
2022-12-10T23:37:32.481Z,48.20
2022-12-10T23:39:58.811Z,41.80
2022-12-10T23:42:28.672Z,45.00
2022-12-10T23:44:55.213Z,42.83
2022-12-10T23:47:21.453Z,38.63
2022-12-10T23:49:47.950Z,38.13
2022-12-10T23:52:14.175Z,54.97
2022-12-10T23:54:40.466Z,51.15
2022-12-10T23:57:06.685Z,49.25
2022-12-10T23:59:33.021Z,57.35
